Anchorville, MI (48004)

4:37 AM EST on February 08, 2016 (GMT -0500)
Swan Creek | | Change Station
CLOSE
Current Station
Personal Weather Station
Location: Michigan, MI
Elevation: 584 ft
Nearby Weather Stations
Active Advisory: Winter Weather Advisory

Elev 584 ft 42.68 °N, 82.65 °W | Updated 1 minute ago

Overcast
Overcast
37.7 °F
Feels Like 38 °F
N
0.0
Wind Variable Wind from SSE
Gusts 1.0 mph

Today
High -- | Low -- °F
--% Chance of Precip.
Yesterday
High -- | Low -- °F
Precip. -- in
Pressure 29.61 in
Visibility 10.0 miles
Clouds Mostly Cloudy 3500 ft
Windchill 38 °F
Dew Point 35 °F
Humidity 89%
Rainfall 0.00 in
Snow Depth Not available.
7:37 AM 5:52 PM
Waning Crescent, 0% visible
SPECI KMTC 080930Z AUTO 18004KT 10SM UP BKN035 02/00 A2961 RMK AO2 UPB30
Pressure 29.61 in
Visibility 10.0 miles
Clouds Mostly Cloudy 3500 ft
Windchill 38 °F
Dew Point 35 °F
Humidity 89%
Rainfall 0.00 in
Snow Depth Not available.
7:37 AM 5:52 PM
Waning Crescent, 0% visible
SPECI KMTC 080930Z AUTO 18004KT 10SM UP BKN035 02/00 A2961 RMK AO2 UPB30

10-Day Weather Forecast

Almanac

Astronomy

Feb. 08, 2016 Rise Set
Actual Time
Civil Twilight
Nautical Twilight
Astronomical Twilight
Moon
Length of Visible Light
Length of Day
Tomorrow will be .
, % of the Moon is Illuminated

Today's Extremes

State Highs State Lows

Community

WunderPhotos

Upload Photos

1,891,412 photos uploaded!

WunderBlog® & News

Nearby

Air Quality

  Air Quality AQ Index Pollutant
Not available.

Snow Depth

Station Depth Elevation

Earthquake Activity

City Distance Mag. Time & Date
Minimum magnitude displayed is 2.5.

Coastal Water Temperatures

Place Temperature

Stations

Nearby Weather Stations

Station Location Temp. Windchill Dew Point Humidity Wind Precip. Elev Updated Type
                   

Watches & Warnings

Winter Weather Advisory
Issued: 3:37 AM EST Feb. 8, 2016 – National Weather Service

... Winter Weather Advisory in effect from 9 PM this evening to
7 PM EST Tuesday...

The National Weather Service in Detroit/Pontiac has issued a
Winter Weather Advisory... which is in effect from 9 PM this
evening to 7 PM EST Tuesday.

Hazardous weather...

* light rain this afternoon will transition to snow tonight

* snow will persist for much of tonight and Tuesday

* 24 hour snow amounts of 3 to 6 inches

Impacts...

* untreated roads will become snow-covered and slippery

* northwest wind will cause some blowing across roads

Precautionary/preparedness actions...

* a Winter Weather Advisory means that periods of snow will
   cause travel difficulties. Be prepared for slippery roads and
   limited visibilities... and use caution while driving.

* Prepare... plan... and stay informed.
   Visit http://go.USA.Gov/rr8



Jvc